默认 日期 大小 文件数 浏览量 最新下载 xml
1955磁力链接相关资源由用户搜索指令自动获取,结果来源于网络,本站不存储任何资料,亦不承担任何责任,请于24小时内删除,搜索到9274个磁力,显示前4000条数据,用时4ms。
    {"www.torrenting.com.txt": 83, "BRIDE OF THE MONSTER 1955 RERIP.nfo": 4011, "BRIDE OF THE MONSTER 1955 RERIP.sample.avi": 17493852, "Downloaded from [ www.torrenting.com ].txt": 83, "BRIDE OF THE MONSTER 1955 RERIP Dvdrip Xvid-NGP.avi": 1047365632}
创建时间: 2019-08-12 10:53:29 大小:1015.53 MB 文件数量:5 热度:5 最近下载:2025-02-07 06:28:01
    ... .II. Duel.At.Ichijoji.Temple.1955.BRRip 720p x264 MarGe.mkv ... .II. Duel.At.Ichijoji.Temple.1955.BRRip 720p x264 MarGe.nfo ... .II. Duel.At.Ichijoji.Temple.1955.BRRip 720p x264 MarGe.srt ... .II. Duel.At.Ichijoji.Temple.1955.BRRip 720p x264 MarGe-sample ...
创建时间: 2019-08-12 13:42:24 大小:3.17 GB 文件数量:4 热度:5 最近下载:2025-02-15 11:02:03
    {"RARBG.txt": 30, "RARBG_DO_NOT_MIRROR.exe": 99, "foxfire.1955.proper.720p.bluray.x264-spectacle.mkv": 4691936875, "foxfire.1955.proper.720p.bluray.x264-spectacle.nfo": 344}
创建时间: 2019-08-12 17:58:17 大小:4.37 GB 文件数量:4 热度:6 最近下载:2025-02-11 04:56:03
    {"Sissi I.avi": 732567552, "Sissi I.srt": 86455, "Sissi I EN.srt": 88229}
创建时间: 2019-08-13 03:01:58 大小:698.8 MB 文件数量:3 热度:5 最近下载:2025-02-05 09:01:48
    {"VIDEO_TS": {"VIDEO_TS.BUP": 12288, "VIDEO_TS.IFO": 12288, "VIDEO_TS.VOB": 51200, "VTS_01_0.BUP": 63488, "VTS_01_0.IFO": 63488, "VTS_01_0.VOB": 51200, "VTS_01_1.VOB": 1073739776, "VTS_01_2.VOB": 1073739776, "VTS_01_3.VOB": 1073739776, "VTS_01_4.VOB": ...
创建时间: 2019-08-13 07:22:16 大小:4.36 GB 文件数量:12 热度:5 最近下载:2025-02-14 21:02:04
    {"Cover.jpg": 26285, "06 Sunday.m4a": 52624303, "Снимок.PNG": 184219, "07 The Monster.m4a": 57247538, "03 Gene's Blues.m4a": 37728380, "05 I Never Knew.m4a": 34701286, "01 Buddy's Blues.m4a": 52118834, "02 Bernie's Tune.m4a": 69306468, "04 Sweethearts On ...
创建时间: 2019-08-13 12:49:20 大小:322.25 MB 文件数量:9 热度:5 最近下载:2025-02-03 14:53:03
    ... RCVR).mkv": 1177784087, "The Honeymooners (1955) - S01E06 - The Sleepwalker (1080p ... RCVR).mkv": 1375215749, "The Honeymooners (1955) - S01E32 - Opportunity Knocks, But ... RCVR).mkv": 1515012601, "The Honeymooners (1955) - S01E33 - Unconventional Behavior (1080p ...
创建时间: 2019-08-13 14:47:51 大小:47.36 GB 文件数量:47 热度:11 最近下载:2025-02-16 07:59:04
    {"Subs": {"2_English.srt": 87556}, "RARBG.txt": 30, "RARBG_DO_NOT_MIRROR.exe": 99, "Cell.2455.Death.Row.1955.720p.BluRay.H264.AAC-RARBG.mp4": 1000608865}
创建时间: 2019-08-13 17:44:10 大小:954.34 MB 文件数量:4 热度:5 最近下载:2025-03-13 03:52:02
    {"RARBG.com.txt": 34, "The.Night.Of.The.Hunter.1955.1080p.BluRay.x264-CiNEFiLE.mkv": 7042904010, "the.night.of.the.hunter.1955.1080p.bluray.x264-cinefile.nfo": 14981}
创建时间: 2019-08-13 19:05:37 大小:6.56 GB 文件数量:3 热度:8 最近下载:2025-02-14 02:53:04
    {"VIDEO_TS.BUP": 10240, "VIDEO_TS.IFO": 10240, "VTS_01_0.BUP": 81920, "VTS_01_0.IFO": 81920, "VTS_01_0.VOB": 2275328, "VTS_01_1.VOB": 1073739776, "VTS_01_2.VOB": 1073739776, "VTS_01_3.VOB": 1073739776, "VTS_01_4.VOB": 1073739776, "VTS_01_5.VOB": 1073739776 ...
创建时间: 2019-08-13 22:19:25 大小:6.36 GB 文件数量:20 热度:6 最近下载:2025-02-27 04:27:01
    {"Subs": {"2_English.srt": 106011}, "RARBG.txt": 30, "RARBG_DO_NOT_MIRROR.exe": 99, "The.Night.Holds.Terror.1955.1080p.BluRay.H264.AAC-RARBG.mp4": 1756544929}
创建时间: 2019-08-13 23:48:12 大小:1.64 GB 文件数量:4 热度:5 最近下载:2025-02-10 11:54:03
    {"Untamed (1955) BRRip Oldies Dual-Audio.mkv": 1599710940}
创建时间: 2019-08-14 03:13:25 大小:1.49 GB 文件数量:1 热度:5 最近下载:2025-02-17 17:55:07
    {"RARBG.txt": 31, "The.Crooked.Web.1955.1080p.BluRay.x264.DTS-FGT.mkv": 7089593191}
创建时间: 2019-08-14 04:16:29 大小:6.6 GB 文件数量:2 热度:6 最近下载:2025-02-10 08:26:02
    {"Subs": {"gua-lastfrontier-720p.idx": 45525, "gua-lastfrontier-720p.sub": 5742592}, "RARBG.txt": 30, "gua-lastfrontier-720p.mkv": 4685816444, "gua-lastfrontier-720p.nfo": 698}
创建时间: 2019-08-14 05:16:31 大小:4.37 GB 文件数量:5 热度:5 最近下载:2025-02-03 06:54:02
    {"01.mp3": 474946, "02.mp3": 43335406, "03.mp3": 45716102}
创建时间: 2019-08-14 06:37:23 大小:85.38 MB 文件数量:3 热度:5 最近下载:2025-02-11 18:53:03
    {"Subs": {"2_English.srt": 98156}, "RARBG.txt": 30, "RARBG_DO_NOT_MIRROR.exe": 99, "New.Orleans.Uncensored.1955.720p.BluRay.H264.AAC-RARBG.mp4": 974290036}
创建时间: 2019-08-19 16:37:54 大小:929.25 MB 文件数量:4 热度:6 最近下载:2025-02-08 19:01:59
    {"The Big Knife 1955 720p Blu-Ray AVC-mfcorrea.mkv": 7297838213}
创建时间: 2019-08-19 17:31:50 大小:6.8 GB 文件数量:1 热度:9 最近下载:2025-09-18 23:34:03
    {"diabolique sample.m4v": 12155669, "diabolique - zeberzee.mp4": 671336659}
创建时间: 2019-08-19 17:50:59 大小:651.83 MB 文件数量:2 热度:6 最近下载:2025-02-08 04:36:04
    ... -spooks.idx": 80627, "oh.rosalinda.1955.1080p.bluray.x264-spooks.sub ... , "RARBG_DO_NOT_MIRROR.exe": 99, "oh.rosalinda.1955.1080p.bluray.x264-spooks.mkv ... ": 7042035964, "oh.rosalinda.1955.1080p.bluray.x264-spooks.nfo ...
创建时间: 2019-08-19 21:19:23 大小:6.57 GB 文件数量:6 热度:5 最近下载:2024-09-05 01:37:02
    ... -spooks.idx": 80625, "oh.rosalinda.1955.bdrip.x264-spooks.sub": 3962880 ... , "RARBG_DO_NOT_MIRROR.exe": 99, "oh.rosalinda.1955.bdrip.x264-spooks.mkv": 905358585 ... , "oh.rosalinda.1955.bdrip.x264-spooks.nfo": 366}
创建时间: 2019-08-19 21:28:55 大小:867.27 MB 文件数量:6 热度:5 最近下载:2025-02-27 18:59:03